»·PEaware :: N822JH KSTS-KHAF

N822JH :: KSTS-KHAF

FLIGHT INFORMATION

Flight Status: Arrived
Operator: Privately registered:
United States
More flights under this callsign
Pilot: Anonymous 23149 (23149)
Aircraft: PIPER PA-24 COMMANCHE
(PA24)
More flights by this aircraft type
Origin: KSTS Sonoma Co
United States
Destination: KHAF Half Moon Bay
United States
More flights between these airports :: More routes between these airports
Route: FREES PYE GOBBS
File this flight plan on PilotEdge
Remarks:
Altitude:
(Current/Filed)
110ft
Speed:
(Current/Filed)
162kts
Departed: 21-Aug-19 11:19 AM
Arrived: 21-Aug-19 11:49 AM
Distance/Time
Traveled:
62nm/0:29
Distance/Time
To Go:
Arrived

Flight Plot

Page will automatically refresh every two minutes.

Flight plan parsing failed; only flown route is shown


Map Options




Map Legend


Flown Route
Filed Route
Departure Airport
Arrival Airport
Navaid (VOR, NDB)
Fix

Horizontal Profiles

Position Reports

Time Latitude Longitude Heading Altitude Ground
Speed
21-Aug-19 10:32 38.507486 -122.805694 0 128ft 0kts
21-Aug-19 10:33 38.507486 -122.805694 0 128ft 0kts
21-Aug-19 10:34 38.507486 -122.805694 0 128ft 0kts
21-Aug-19 10:35 38.507486 -122.805694 0 128ft 0kts
21-Aug-19 10:36 38.507486 -122.805694 0 128ft 0kts
21-Aug-19 10:37 38.507486 -122.805694 0 128ft 0kts
21-Aug-19 10:38 38.507486 -122.805694 0 128ft 0kts
21-Aug-19 10:39 38.507486 -122.805694 0 128ft 0kts
21-Aug-19 10:40 38.507486 -122.805694 0 128ft 0kts
21-Aug-19 10:41 38.507486 -122.805694 0 128ft 0kts
21-Aug-19 10:42 38.507486 -122.805694 0 128ft 0kts
21-Aug-19 10:43 38.507486 -122.805694 0 128ft 0kts
21-Aug-19 10:44 38.507486 -122.805694 0 128ft 0kts
21-Aug-19 10:45 38.507486 -122.805694 0 128ft 0kts
21-Aug-19 10:46 38.507486 -122.805694 0 128ft 0kts
21-Aug-19 10:47 38.507486 -122.805694 0 128ft 0kts
21-Aug-19 10:48 38.507486 -122.805694 0 128ft 0kts
21-Aug-19 10:49 38.507486 -122.805694 0 128ft 0kts
21-Aug-19 10:50 38.507486 -122.805694 0 128ft 0kts
21-Aug-19 10:51 38.507486 -122.805694 0 128ft 0kts
21-Aug-19 10:52 38.507488 -122.805694 0 128ft 0kts
21-Aug-19 10:57 38.507486 -122.805694 0 128ft 0kts
21-Aug-19 10:58 38.507486 -122.805694 0 128ft 0kts
21-Aug-19 10:59 38.507486 -122.805694 0 128ft 0kts
21-Aug-19 11:00 38.507486 -122.805694 0 128ft 0kts
21-Aug-19 11:01 38.507507 -122.805694 0 128ft 0kts
21-Aug-19 11:02 38.507513 -122.805694 0 128ft 0kts
21-Aug-19 11:03 38.507446 -122.805695 0 128ft 0kts
21-Aug-19 11:04 38.507452 -122.805695 0 128ft 0kts
21-Aug-19 11:05 38.507459 -122.805695 0 128ft 0kts
21-Aug-19 11:06 38.507500 -122.805788 228 128ft 2kts
21-Aug-19 11:07 38.507335 -122.805877 278 128ft 0kts
21-Aug-19 11:09 38.507335 -122.805878 278 128ft 0kts
21-Aug-19 11:10 38.507335 -122.805879 278 128ft 0kts
21-Aug-19 11:11 38.507335 -122.805880 278 128ft 0kts
21-Aug-19 11:12 38.507330 -122.806163 272 128ft 2kts
21-Aug-19 11:13 38.510040 -122.807457 336 128ft 17kts
21-Aug-19 11:14 38.513077 -122.809881 336 128ft 19kts
21-Aug-19 11:15 38.514427 -122.811004 301 128ft 0kts
21-Aug-19 11:16 38.514432 -122.811015 301 128ft 0kts
21-Aug-19 11:17 38.514438 -122.811026 301 128ft 0kts
21-Aug-19 11:18 38.514776 -122.812023 236 128ft 13kts
21-Aug-19 11:19 38.496590 -122.806835 194 763ft 107kts
21-Aug-19 11:20 38.478990 -122.839201 229 2120ft 128kts
21-Aug-19 11:21 38.451874 -122.869250 218 3560ft 132kts
21-Aug-19 11:22 38.423666 -122.896857 224 4920ft 125kts
21-Aug-19 11:23 38.394871 -122.924040 208 5996ft 144kts
21-Aug-19 11:24 38.354479 -122.919116 172 6977ft 149kts
21-Aug-19 11:25 38.313426 -122.910704 172 8229ft 150kts
21-Aug-19 11:26 38.273984 -122.902122 171 9185ft 142kts
21-Aug-19 11:27 38.235690 -122.893296 171 10351ft 138kts
21-Aug-19 11:28 38.195907 -122.884296 180 10975ft 149kts
21-Aug-19 11:29 38.150434 -122.882186 172 11016ft 166kts
21-Aug-19 11:30 38.103305 -122.872671 174 11024ft 170kts
21-Aug-19 11:31 38.058027 -122.853103 150 11011ft 176kts
21-Aug-19 11:31 38.022518 -122.828514 153 10637ft 176kts
21-Aug-19 11:32 37.978876 -122.800073 152 9530ft 170kts
21-Aug-19 11:34 37.930219 -122.765727 148 7983ft 178kts
21-Aug-19 11:34 37.894197 -122.741420 147 6804ft 167kts
21-Aug-19 11:35 37.856272 -122.715321 152 5470ft 172kts
21-Aug-19 11:36 37.815658 -122.688269 150 4247ft 165kts
21-Aug-19 11:37 37.775971 -122.661144 150 3188ft 163kts
21-Aug-19 11:38 37.734919 -122.635641 152 2989ft 168kts
21-Aug-19 11:39 37.692580 -122.610572 153 2995ft 166kts
21-Aug-19 11:40 37.651139 -122.584558 153 2997ft 166kts
21-Aug-19 11:41 37.608867 -122.559105 154 2996ft 168kts
21-Aug-19 11:42 37.574293 -122.533952 140 2081ft 129kts
21-Aug-19 11:43 37.547389 -122.505261 139 1406ft 125kts
21-Aug-19 11:44 37.522815 -122.477468 139 1187ft 116kts
21-Aug-19 11:45 37.496690 -122.450757 155 927ft 124kts
21-Aug-19 11:46 37.489252 -122.473747 315 840ft 84kts
21-Aug-19 11:47 37.503707 -122.489979 318 242ft 68kts
21-Aug-19 11:48 37.513528 -122.501116 2 70ft 4kts
21-Aug-19 11:49 37.515423 -122.499642 35 70ft 7kts
21-Aug-19 11:50 37.513772 -122.496407 116 70ft 7kts
21-Aug-19 11:51 37.514127 -122.496223 302 70ft 0kts

Navigation Log

Ident Type
Flight plan parsing failed, navigation log unavailable